sensor_id;sensor_type;location;lat;lon;timestamp;temperature;humidity
45761;DHT22;31471;51.040;14.414;2023-02-02T00:00:55;2.20;99.90
45761;DHT22;31471;51.040;14.414;2023-02-02T00:03:21;2.20;99.90
45761;DHT22;31471;51.040;14.414;2023-02-02T00:05:47;2.20;99.90
45761;DHT22;31471;51.040;14.414;2023-02-02T00:08:17;2.20;99.90
45761;DHT22;31471;51.040;14.414;2023-02-02T00:10:43;2.20;99.90
45761;DHT22;31471;51.040;14.414;2023-02-02T00:13:09;2.20;99.90
45761;DHT22;31471;51.040;14.414;2023-02-02T00:15:34;2.20;99.90
45761;DHT22;31471;51.040;14.414;2023-02-02T00:18:00;2.20;99.90
45761;DHT22;31471;51.040;14.414;2023-02-02T00:20:25;2.10;99.90
45761;DHT22;31471;51.040;14.414;2023-02-02T00:22:51;2.10;99.90
45761;DHT22;31471;51.040;14.414;2023-02-02T00:25:16;2.10;99.90
45761;DHT22;31471;51.040;14.414;2023-02-02T00:27:42;2.10;99.90
45761;DHT22;31471;51.040;14.414;2023-02-02T00:30:07;2.00;99.90
45761;DHT22;31471;51.040;14.414;2023-02-02T00:32:33;2.00;99.90
45761;DHT22;31471;51.040;14.414;2023-02-02T00:34:58;2.00;99.90
45761;DHT22;31471;51.040;14.414;2023-02-02T00:37:24;2.00;99.90
45761;DHT22;31471;51.040;14.414;2023-02-02T00:39:49;2.00;99.90
45761;DHT22;31471;51.040;14.414;2023-02-02T00:42:16;1.90;99.90
45761;DHT22;31471;51.040;14.414;2023-02-02T00:44:41;1.90;99.90
45761;DHT22;31471;51.040;14.414;2023-02-02T00:47:25;1.90;99.90
45761;DHT22;31471;51.040;14.414;2023-02-02T00:49:51;1.80;99.90
45761;DHT22;31471;51.040;14.414;2023-02-02T00:52:16;1.80;99.90
45761;DHT22;31471;51.040;14.414;2023-02-02T00:54:43;1.80;99.90
45761;DHT22;31471;51.040;14.414;2023-02-02T00:57:11;1.80;99.90
45761;DHT22;31471;51.040;14.414;2023-02-02T00:59:37;1.80;99.90
45761;DHT22;31471;51.040;14.414;2023-02-02T01:02:02;1.80;99.90
45761;DHT22;31471;51.040;14.414;2023-02-02T01:04:28;1.90;99.90
45761;DHT22;31471;51.040;14.414;2023-02-02T01:06:53;1.90;99.90
45761;DHT22;31471;51.040;14.414;2023-02-02T01:09:19;1.90;99.90
45761;DHT22;31471;51.040;14.414;2023-02-02T01:11:44;1.90;99.90
45761;DHT22;31471;51.040;14.414;2023-02-02T01:14:10;1.90;99.90
45761;DHT22;31471;51.040;14.414;2023-02-02T01:16:35;2.00;99.90
45761;DHT22;31471;51.040;14.414;2023-02-02T01:19:01;2.00;99.90
45761;DHT22;31471;51.040;14.414;2023-02-02T01:21:27;2.00;99.90
45761;DHT22;31471;51.040;14.414;2023-02-02T01:23:52;2.00;99.90
45761;DHT22;31471;51.040;14.414;2023-02-02T01:26:18;2.00;99.90
45761;DHT22;31471;51.040;14.414;2023-02-02T01:28:43;1.90;99.90
45761;DHT22;31471;51.040;14.414;2023-02-02T01:31:10;1.90;99.90
45761;DHT22;31471;51.040;14.414;2023-02-02T01:33:36;1.90;99.90
45761;DHT22;31471;51.040;14.414;2023-02-02T01:36:03;1.90;99.90
45761;DHT22;31471;51.040;14.414;2023-02-02T01:38:29;1.90;99.90
45761;DHT22;31471;51.040;14.414;2023-02-02T01:40:55;1.80;99.90
45761;DHT22;31471;51.040;14.414;2023-02-02T01:43:26;1.80;99.90
45761;DHT22;31471;51.040;14.414;2023-02-02T01:45:52;1.90;99.90
45761;DHT22;31471;51.040;14.414;2023-02-02T01:48:19;1.90;99.90
45761;DHT22;31471;51.040;14.414;2023-02-02T01:50:46;1.90;99.90
45761;DHT22;31471;51.040;14.414;2023-02-02T01:53:13;1.90;99.90
45761;DHT22;31471;51.040;14.414;2023-02-02T01:55:38;2.00;99.90
45761;DHT22;31471;51.040;14.414;2023-02-02T01:58:07;1.90;99.90
45761;DHT22;31471;51.040;14.414;2023-02-02T02:00:34;1.90;99.90
45761;DHT22;31471;51.040;14.414;2023-02-02T02:03:11;1.90;99.90
45761;DHT22;31471;51.040;14.414;2023-02-02T02:06:12;1.80;99.90
45761;DHT22;31471;51.040;14.414;2023-02-02T02:08:36;1.80;99.90
45761;DHT22;31471;51.040;14.414;2023-02-02T02:11:02;1.80;99.90
45761;DHT22;31471;51.040;14.414;2023-02-02T02:13:28;1.90;99.90
45761;DHT22;31471;51.040;14.414;2023-02-02T02:16:23;1.90;99.90
45761;DHT22;31471;51.040;14.414;2023-02-02T02:18:57;1.80;99.90
45761;DHT22;31471;51.040;14.414;2023-02-02T02:21:31;1.90;99.90
45761;DHT22;31471;51.040;14.414;2023-02-02T02:30:06;2.00;99.90
45761;DHT22;31471;51.040;14.414;2023-02-02T02:35:08;2.10;99.90
45761;DHT22;31471;51.040;14.414;2023-02-02T02:42:38;2.10;99.90
45761;DHT22;31471;51.040;14.414;2023-02-02T02:45:07;2.20;99.90
45761;DHT22;31471;51.040;14.414;2023-02-02T02:47:34;2.20;99.90
45761;DHT22;31471;51.040;14.414;2023-02-02T02:50:00;2.20;99.90
45761;DHT22;31471;51.040;14.414;2023-02-02T02:52:26;2.20;99.90
45761;DHT22;31471;51.040;14.414;2023-02-02T02:54:52;2.20;99.90
45761;DHT22;31471;51.040;14.414;2023-02-02T02:57:34;2.20;99.90
45761;DHT22;31471;51.040;14.414;2023-02-02T03:00:10;2.30;99.90
45761;DHT22;31471;51.040;14.414;2023-02-02T03:05:07;2.40;99.90
45761;DHT22;31471;51.040;14.414;2023-02-02T03:07:42;2.30;99.90
45761;DHT22;31471;51.040;14.414;2023-02-02T03:10:09;2.30;99.90
45761;DHT22;31471;51.040;14.414;2023-02-02T03:12:42;2.30;99.90
45761;DHT22;31471;51.040;14.414;2023-02-02T03:15:08;2.40;99.90
45761;DHT22;31471;51.040;14.414;2023-02-02T03:17:34;2.30;99.90
45761;DHT22;31471;51.040;14.414;2023-02-02T03:19:59;2.40;99.90
45761;DHT22;31471;51.040;14.414;2023-02-02T03:22:24;2.40;99.90
45761;DHT22;31471;51.040;14.414;2023-02-02T03:24:50;2.40;99.90
45761;DHT22;31471;51.040;14.414;2023-02-02T03:27:15;2.30;99.90
45761;DHT22;31471;51.040;14.414;2023-02-02T03:29:41;2.40;99.90
45761;DHT22;31471;51.040;14.414;2023-02-02T03:32:06;2.40;99.90
45761;DHT22;31471;51.040;14.414;2023-02-02T03:34:32;2.40;99.90
45761;DHT22;31471;51.040;14.414;2023-02-02T03:36:57;2.40;99.90
45761;DHT22;31471;51.040;14.414;2023-02-02T03:39:23;2.40;99.90
45761;DHT22;31471;51.040;14.414;2023-02-02T03:41:48;2.40;99.90
45761;DHT22;31471;51.040;14.414;2023-02-02T03:44:14;2.40;99.90
45761;DHT22;31471;51.040;14.414;2023-02-02T03:46:39;2.40;99.90
45761;DHT22;31471;51.040;14.414;2023-02-02T03:49:05;2.40;99.90
45761;DHT22;31471;51.040;14.414;2023-02-02T03:51:30;2.40;99.90
45761;DHT22;31471;51.040;14.414;2023-02-02T03:53:56;2.40;99.90
45761;DHT22;31471;51.040;14.414;2023-02-02T03:56:21;2.40;99.90
45761;DHT22;31471;51.040;14.414;2023-02-02T03:58:46;2.40;99.90
45761;DHT22;31471;51.040;14.414;2023-02-02T04:01:12;2.40;99.90
45761;DHT22;31471;51.040;14.414;2023-02-02T04:03:38;2.40;99.90
45761;DHT22;31471;51.040;14.414;2023-02-02T04:06:04;2.30;99.90
45761;DHT22;31471;51.040;14.414;2023-02-02T04:08:30;2.40;99.90
45761;DHT22;31471;51.040;14.414;2023-02-02T04:10:55;2.40;99.90
45761;DHT22;31471;51.040;14.414;2023-02-02T04:13:21;2.40;99.90
45761;DHT22;31471;51.040;14.414;2023-02-02T04:15:46;2.40;99.90
45761;DHT22;31471;51.040;14.414;2023-02-02T04:18:12;2.30;99.90
45761;DHT22;31471;51.040;14.414;2023-02-02T04:20:37;2.30;99.90
45761;DHT22;31471;51.040;14.414;2023-02-02T04:23:03;2.30;99.90
45761;DHT22;31471;51.040;14.414;2023-02-02T04:25:28;2.30;99.90
45761;DHT22;31471;51.040;14.414;2023-02-02T04:27:54;2.30;99.90
45761;DHT22;31471;51.040;14.414;2023-02-02T04:30:19;2.30;99.90
45761;DHT22;31471;51.040;14.414;2023-02-02T04:32:45;2.30;99.90
45761;DHT22;31471;51.040;14.414;2023-02-02T04:35:11;2.30;99.90
45761;DHT22;31471;51.040;14.414;2023-02-02T04:37:36;2.30;99.90
45761;DHT22;31471;51.040;14.414;2023-02-02T04:40:02;2.40;99.90
45761;DHT22;31471;51.040;14.414;2023-02-02T04:42:27;2.30;99.90
45761;DHT22;31471;51.040;14.414;2023-02-02T04:44:53;2.30;99.90
45761;DHT22;31471;51.040;14.414;2023-02-02T04:47:19;2.30;99.90
45761;DHT22;31471;51.040;14.414;2023-02-02T04:49:44;2.30;99.90
45761;DHT22;31471;51.040;14.414;2023-02-02T04:52:10;2.30;99.90
45761;DHT22;31471;51.040;14.414;2023-02-02T04:54:35;2.40;99.90
45761;DHT22;31471;51.040;14.414;2023-02-02T04:57:01;2.40;99.90
45761;DHT22;31471;51.040;14.414;2023-02-02T04:59:27;2.40;99.90
45761;DHT22;31471;51.040;14.414;2023-02-02T05:01:52;2.40;99.90
45761;DHT22;31471;51.040;14.414;2023-02-02T05:04:18;2.40;99.90
45761;DHT22;31471;51.040;14.414;2023-02-02T05:06:43;2.40;99.90
45761;DHT22;31471;51.040;14.414;2023-02-02T05:09:09;2.40;99.90
45761;DHT22;31471;51.040;14.414;2023-02-02T05:11:34;2.40;99.90
45761;DHT22;31471;51.040;14.414;2023-02-02T05:14:00;2.40;99.90
45761;DHT22;31471;51.040;14.414;2023-02-02T05:16:25;2.40;99.90
45761;DHT22;31471;51.040;14.414;2023-02-02T05:18:52;2.40;99.90
45761;DHT22;31471;51.040;14.414;2023-02-02T05:21:18;2.40;99.90
45761;DHT22;31471;51.040;14.414;2023-02-02T05:23:43;2.30;99.90
45761;DHT22;31471;51.040;14.414;2023-02-02T05:26:11;2.30;99.90
45761;DHT22;31471;51.040;14.414;2023-02-02T05:28:39;2.30;99.90
45761;DHT22;31471;51.040;14.414;2023-02-02T05:31:06;2.30;99.90
45761;DHT22;31471;51.040;14.414;2023-02-02T05:33:31;2.30;99.90
45761;DHT22;31471;51.040;14.414;2023-02-02T05:35:57;2.30;99.90
45761;DHT22;31471;51.040;14.414;2023-02-02T05:38:22;2.30;99.90
45761;DHT22;31471;51.040;14.414;2023-02-02T05:40:48;2.30;99.90
45761;DHT22;31471;51.040;14.414;2023-02-02T05:43:13;2.30;99.90
45761;DHT22;31471;51.040;14.414;2023-02-02T05:45:39;2.30;99.90
45761;DHT22;31471;51.040;14.414;2023-02-02T05:48:04;2.30;99.90
45761;DHT22;31471;51.040;14.414;2023-02-02T05:50:30;2.20;99.90
45761;DHT22;31471;51.040;14.414;2023-02-02T05:53:02;2.20;99.90
45761;DHT22;31471;51.040;14.414;2023-02-02T05:55:28;2.20;99.90
45761;DHT22;31471;51.040;14.414;2023-02-02T05:57:53;2.20;99.90
45761;DHT22;31471;51.040;14.414;2023-02-02T06:00:20;2.30;99.90
45761;DHT22;31471;51.040;14.414;2023-02-02T06:02:45;2.20;99.90
45761;DHT22;31471;51.040;14.414;2023-02-02T06:05:11;2.20;99.90
45761;DHT22;31471;51.040;14.414;2023-02-02T06:07:36;2.20;99.90
45761;DHT22;31471;51.040;14.414;2023-02-02T06:10:02;2.20;99.90
45761;DHT22;31471;51.040;14.414;2023-02-02T06:12:27;2.20;99.90
45761;DHT22;31471;51.040;14.414;2023-02-02T06:14:53;2.20;99.90
45761;DHT22;31471;51.040;14.414;2023-02-02T06:17:18;2.20;99.90
45761;DHT22;31471;51.040;14.414;2023-02-02T06:19:43;2.20;99.90
45761;DHT22;31471;51.040;14.414;2023-02-02T06:22:09;2.20;99.90
45761;DHT22;31471;51.040;14.414;2023-02-02T06:24:34;2.20;99.90
45761;DHT22;31471;51.040;14.414;2023-02-02T06:27:00;2.20;99.90
45761;DHT22;31471;51.040;14.414;2023-02-02T06:29:25;2.20;99.90
45761;DHT22;31471;51.040;14.414;2023-02-02T06:31:51;2.20;99.90
45761;DHT22;31471;51.040;14.414;2023-02-02T06:34:16;2.20;99.90
45761;DHT22;31471;51.040;14.414;2023-02-02T06:36:42;2.10;99.90
45761;DHT22;31471;51.040;14.414;2023-02-02T06:39:07;2.00;99.90
45761;DHT22;31471;51.040;14.414;2023-02-02T06:41:34;2.10;99.90
45761;DHT22;31471;51.040;14.414;2023-02-02T06:43:59;2.00;99.90
45761;DHT22;31471;51.040;14.414;2023-02-02T06:46:25;2.00;99.90
45761;DHT22;31471;51.040;14.414;2023-02-02T06:48:50;2.00;99.90
45761;DHT22;31471;51.040;14.414;2023-02-02T06:51:16;2.00;99.90
45761;DHT22;31471;51.040;14.414;2023-02-02T06:53:41;2.10;99.90
45761;DHT22;31471;51.040;14.414;2023-02-02T06:56:08;2.10;99.90
45761;DHT22;31471;51.040;14.414;2023-02-02T06:58:36;2.10;99.90
45761;DHT22;31471;51.040;14.414;2023-02-02T07:01:05;2.10;99.90
45761;DHT22;31471;51.040;14.414;2023-02-02T07:03:32;2.10;99.90
45761;DHT22;31471;51.040;14.414;2023-02-02T07:05:57;2.20;99.90
45761;DHT22;31471;51.040;14.414;2023-02-02T07:08:23;2.20;99.90
45761;DHT22;31471;51.040;14.414;2023-02-02T07:10:48;2.20;99.90
45761;DHT22;31471;51.040;14.414;2023-02-02T07:13:14;2.20;99.90
45761;DHT22;31471;51.040;14.414;2023-02-02T07:15:39;2.20;99.90
45761;DHT22;31471;51.040;14.414;2023-02-02T07:18:05;2.30;99.90
45761;DHT22;31471;51.040;14.414;2023-02-02T07:20:31;2.20;99.90
45761;DHT22;31471;51.040;14.414;2023-02-02T07:22:56;2.20;99.90
45761;DHT22;31471;51.040;14.414;2023-02-02T07:25:22;2.20;99.90
45761;DHT22;31471;51.040;14.414;2023-02-02T07:27:51;2.20;99.90
45761;DHT22;31471;51.040;14.414;2023-02-02T07:30:17;2.20;99.90
45761;DHT22;31471;51.040;14.414;2023-02-02T07:32:46;2.20;99.90
45761;DHT22;31471;51.040;14.414;2023-02-02T07:35:12;2.20;99.90
45761;DHT22;31471;51.040;14.414;2023-02-02T07:37:37;2.30;99.90
45761;DHT22;31471;51.040;14.414;2023-02-02T07:40:05;2.20;99.90
45761;DHT22;31471;51.040;14.414;2023-02-02T07:42:30;2.30;99.90
45761;DHT22;31471;51.040;14.414;2023-02-02T07:44:56;2.20;99.90
45761;DHT22;31471;51.040;14.414;2023-02-02T07:47:21;2.30;99.90
45761;DHT22;31471;51.040;14.414;2023-02-02T07:49:47;2.20;99.90
45761;DHT22;31471;51.040;14.414;2023-02-02T07:52:12;2.20;99.90
45761;DHT22;31471;51.040;14.414;2023-02-02T07:54:38;2.20;99.90
45761;DHT22;31471;51.040;14.414;2023-02-02T07:57:03;2.30;99.90
45761;DHT22;31471;51.040;14.414;2023-02-02T07:59:29;2.30;99.90
45761;DHT22;31471;51.040;14.414;2023-02-02T08:01:54;2.30;99.90
45761;DHT22;31471;51.040;14.414;2023-02-02T08:04:20;2.30;99.90
45761;DHT22;31471;51.040;14.414;2023-02-02T08:06:45;2.30;99.90
45761;DHT22;31471;51.040;14.414;2023-02-02T08:09:11;2.50;99.90
45761;DHT22;31471;51.040;14.414;2023-02-02T08:11:36;2.50;99.90
45761;DHT22;31471;51.040;14.414;2023-02-02T08:14:02;2.60;99.90
45761;DHT22;31471;51.040;14.414;2023-02-02T08:16:28;2.60;99.90
45761;DHT22;31471;51.040;14.414;2023-02-02T08:18:54;2.70;99.90
45761;DHT22;31471;51.040;14.414;2023-02-02T08:21:20;2.70;99.90
45761;DHT22;31471;51.040;14.414;2023-02-02T08:23:46;2.70;99.90
45761;DHT22;31471;51.040;14.414;2023-02-02T08:26:13;2.80;99.90
45761;DHT22;31471;51.040;14.414;2023-02-02T08:28:39;2.70;99.90
45761;DHT22;31471;51.040;14.414;2023-02-02T08:31:09;2.80;99.90
45761;DHT22;31471;51.040;14.414;2023-02-02T08:33:35;2.80;99.90
45761;DHT22;31471;51.040;14.414;2023-02-02T08:36:02;2.90;99.90
45761;DHT22;31471;51.040;14.414;2023-02-02T08:38:27;2.70;99.90
45761;DHT22;31471;51.040;14.414;2023-02-02T08:40:53;2.60;99.90
45761;DHT22;31471;51.040;14.414;2023-02-02T08:43:19;2.50;99.90
45761;DHT22;31471;51.040;14.414;2023-02-02T08:45:44;2.60;99.90
45761;DHT22;31471;51.040;14.414;2023-02-02T08:48:10;2.60;99.90
45761;DHT22;31471;51.040;14.414;2023-02-02T08:50:37;2.60;99.90
45761;DHT22;31471;51.040;14.414;2023-02-02T08:53:02;2.50;99.90
45761;DHT22;31471;51.040;14.414;2023-02-02T08:55:28;2.50;99.90
45761;DHT22;31471;51.040;14.414;2023-02-02T08:57:53;2.60;99.90
45761;DHT22;31471;51.040;14.414;2023-02-02T09:00:19;2.50;99.90
45761;DHT22;31471;51.040;14.414;2023-02-02T09:02:44;2.60;99.90
45761;DHT22;31471;51.040;14.414;2023-02-02T09:05:13;2.60;99.90
45761;DHT22;31471;51.040;14.414;2023-02-02T09:07:39;2.60;99.90
45761;DHT22;31471;51.040;14.414;2023-02-02T09:10:05;2.80;99.90
45761;DHT22;31471;51.040;14.414;2023-02-02T09:12:30;2.80;99.90
45761;DHT22;31471;51.040;14.414;2023-02-02T09:14:56;2.80;99.90
45761;DHT22;31471;51.040;14.414;2023-02-02T09:17:21;2.90;99.90
45761;DHT22;31471;51.040;14.414;2023-02-02T09:19:48;3.00;99.90
45761;DHT22;31471;51.040;14.414;2023-02-02T09:22:14;3.00;99.90
45761;DHT22;31471;51.040;14.414;2023-02-02T09:24:39;3.10;99.90
45761;DHT22;31471;51.040;14.414;2023-02-02T09:27:05;3.00;99.90
45761;DHT22;31471;51.040;14.414;2023-02-02T09:29:30;3.10;99.90
45761;DHT22;31471;51.040;14.414;2023-02-02T09:31:56;3.00;99.90
45761;DHT22;31471;51.040;14.414;2023-02-02T09:34:21;3.00;99.90
45761;DHT22;31471;51.040;14.414;2023-02-02T09:36:47;3.00;99.90
45761;DHT22;31471;51.040;14.414;2023-02-02T09:39:12;3.00;99.90
45761;DHT22;31471;51.040;14.414;2023-02-02T09:49:21;2.30;99.90
45761;DHT22;31471;51.040;14.414;2023-02-02T09:51:50;2.30;99.90
45761;DHT22;31471;51.040;14.414;2023-02-02T09:54:24;2.00;99.90
45761;DHT22;31471;51.040;14.414;2023-02-02T09:56:51;2.00;99.90
45761;DHT22;31471;51.040;14.414;2023-02-02T09:59:24;2.00;99.90
45761;DHT22;31471;51.040;14.414;2023-02-02T10:01:52;2.00;99.90
45761;DHT22;31471;51.040;14.414;2023-02-02T10:04:21;2.00;99.90
45761;DHT22;31471;51.040;14.414;2023-02-02T10:06:49;2.10;99.90
45761;DHT22;31471;51.040;14.414;2023-02-02T10:09:22;2.20;99.90
45761;DHT22;31471;51.040;14.414;2023-02-02T10:11:59;2.30;99.90
45761;DHT22;31471;51.040;14.414;2023-02-02T10:14:28;2.30;99.90
45761;DHT22;31471;51.040;14.414;2023-02-02T10:16:55;2.40;99.90
45761;DHT22;31471;51.040;14.414;2023-02-02T10:19:23;2.30;99.90
45761;DHT22;31471;51.040;14.414;2023-02-02T10:22:01;2.40;99.90
45761;DHT22;31471;51.040;14.414;2023-02-02T10:24:28;2.40;99.90
45761;DHT22;31471;51.040;14.414;2023-02-02T10:26:57;2.40;99.90
45761;DHT22;31471;51.040;14.414;2023-02-02T10:31:55;2.60;99.90
45761;DHT22;31471;51.040;14.414;2023-02-02T10:34:52;2.60;99.90
45761;DHT22;31471;51.040;14.414;2023-02-02T10:37:25;2.50;99.90
45761;DHT22;31471;51.040;14.414;2023-02-02T10:40:02;2.50;99.90
45761;DHT22;31471;51.040;14.414;2023-02-02T10:42:32;2.40;99.90
45761;DHT22;31471;51.040;14.414;2023-02-02T10:45:01;2.50;99.90
45761;DHT22;31471;51.040;14.414;2023-02-02T10:47:31;2.50;99.90
45761;DHT22;31471;51.040;14.414;2023-02-02T10:50:18;2.60;99.90
45761;DHT22;31471;51.040;14.414;2023-02-02T10:52:47;2.50;99.90
45761;DHT22;31471;51.040;14.414;2023-02-02T10:57:57;2.70;99.90
45761;DHT22;31471;51.040;14.414;2023-02-02T11:00:37;2.80;99.90
45761;DHT22;31471;51.040;14.414;2023-02-02T11:03:04;2.80;99.90
45761;DHT22;31471;51.040;14.414;2023-02-02T11:05:32;3.00;99.90
45761;DHT22;31471;51.040;14.414;2023-02-02T11:08:20;3.10;99.90
45761;DHT22;31471;51.040;14.414;2023-02-02T11:10:47;3.10;99.90
45761;DHT22;31471;51.040;14.414;2023-02-02T11:13:48;3.20;99.90
45761;DHT22;31471;51.040;14.414;2023-02-02T11:18:40;3.30;99.90
45761;DHT22;31471;51.040;14.414;2023-02-02T11:23:49;3.50;99.90
45761;DHT22;31471;51.040;14.414;2023-02-02T11:26:14;3.50;99.90
45761;DHT22;31471;51.040;14.414;2023-02-02T11:28:40;3.40;99.90
45761;DHT22;31471;51.040;14.414;2023-02-02T11:31:05;3.40;99.90
45761;DHT22;31471;51.040;14.414;2023-02-02T11:33:32;3.40;99.90
45761;DHT22;31471;51.040;14.414;2023-02-02T11:36:05;3.40;99.90
45761;DHT22;31471;51.040;14.414;2023-02-02T11:38:41;3.40;99.90
45761;DHT22;31471;51.040;14.414;2023-02-02T11:41:07;3.40;99.90
45761;DHT22;31471;51.040;14.414;2023-02-02T11:43:36;3.40;99.90
45761;DHT22;31471;51.040;14.414;2023-02-02T11:46:12;3.60;99.90
45761;DHT22;31471;51.040;14.414;2023-02-02T11:48:40;3.60;99.90
45761;DHT22;31471;51.040;14.414;2023-02-02T11:51:12;3.70;99.90
45761;DHT22;31471;51.040;14.414;2023-02-02T11:53:45;3.70;99.90
45761;DHT22;31471;51.040;14.414;2023-02-02T11:56:19;3.70;99.90
45761;DHT22;31471;51.040;14.414;2023-02-02T11:58:46;3.70;99.90
45761;DHT22;31471;51.040;14.414;2023-02-02T12:01:21;3.70;99.90
45761;DHT22;31471;51.040;14.414;2023-02-02T12:03:47;3.70;99.90
45761;DHT22;31471;51.040;14.414;2023-02-02T12:06:16;3.80;99.90
45761;DHT22;31471;51.040;14.414;2023-02-02T12:08:42;3.80;99.90
45761;DHT22;31471;51.040;14.414;2023-02-02T12:11:08;3.80;99.90
45761;DHT22;31471;51.040;14.414;2023-02-02T12:13:45;4.00;99.90
45761;DHT22;31471;51.040;14.414;2023-02-02T12:16:35;3.90;99.90
45761;DHT22;31471;51.040;14.414;2023-02-02T12:24:23;3.70;99.90
45761;DHT22;31471;51.040;14.414;2023-02-02T12:26:54;3.80;99.90
45761;DHT22;31471;51.040;14.414;2023-02-02T12:29:30;3.80;99.90
45761;DHT22;31471;51.040;14.414;2023-02-02T12:32:05;3.70;99.90
45761;DHT22;31471;51.040;14.414;2023-02-02T12:37:12;3.70;99.90
45761;DHT22;31471;51.040;14.414;2023-02-02T12:42:35;3.70;99.90
45761;DHT22;31471;51.040;14.414;2023-02-02T12:45:10;3.70;99.90
45761;DHT22;31471;51.040;14.414;2023-02-02T12:47:42;3.60;99.90
45761;DHT22;31471;51.040;14.414;2023-02-02T12:50:23;3.60;99.90
45761;DHT22;31471;51.040;14.414;2023-02-02T13:00:48;3.80;99.90
45761;DHT22;31471;51.040;14.414;2023-02-02T13:03:24;3.60;99.90
45761;DHT22;31471;51.040;14.414;2023-02-02T13:06:02;3.50;99.90
45761;DHT22;31471;51.040;14.414;2023-02-02T13:08:34;3.40;99.90
45761;DHT22;31471;51.040;14.414;2023-02-02T13:11:05;3.40;99.90
45761;DHT22;31471;51.040;14.414;2023-02-02T13:13:53;3.00;99.90
45761;DHT22;31471;51.040;14.414;2023-02-02T13:16:19;2.50;99.90
45761;DHT22;31471;51.040;14.414;2023-02-02T13:18:45;2.50;99.90
45761;DHT22;31471;51.040;14.414;2023-02-02T13:21:15;2.60;99.90
45761;DHT22;31471;51.040;14.414;2023-02-02T13:23:48;2.40;99.90
45761;DHT22;31471;51.040;14.414;2023-02-02T13:26:18;2.50;99.90
45761;DHT22;31471;51.040;14.414;2023-02-02T13:31:34;2.50;99.90
45761;DHT22;31471;51.040;14.414;2023-02-02T13:34:06;2.50;99.90
45761;DHT22;31471;51.040;14.414;2023-02-02T13:36:38;2.60;99.90
45761;DHT22;31471;51.040;14.414;2023-02-02T13:39:08;2.70;99.90
45761;DHT22;31471;51.040;14.414;2023-02-02T13:41:38;2.80;99.90
45761;DHT22;31471;51.040;14.414;2023-02-02T13:44:05;2.80;99.90
45761;DHT22;31471;51.040;14.414;2023-02-02T13:46:41;2.80;99.90
45761;DHT22;31471;51.040;14.414;2023-02-02T13:57:16;2.80;99.90
45761;DHT22;31471;51.040;14.414;2023-02-02T13:59:56;2.60;99.90
45761;DHT22;31471;51.040;14.414;2023-02-02T14:04:56;2.30;99.90
45761;DHT22;31471;51.040;14.414;2023-02-02T14:07:41;2.30;99.90
45761;DHT22;31471;51.040;14.414;2023-02-02T14:12:45;2.20;99.90
45761;DHT22;31471;51.040;14.414;2023-02-02T14:15:10;2.20;99.90
45761;DHT22;31471;51.040;14.414;2023-02-02T14:20:03;2.20;99.90
45761;DHT22;31471;51.040;14.414;2023-02-02T14:22:38;2.20;99.90
45761;DHT22;31471;51.040;14.414;2023-02-02T14:28:37;2.20;99.90
45761;DHT22;31471;51.040;14.414;2023-02-02T14:30:40;2.20;99.90
45761;DHT22;31471;51.040;14.414;2023-02-02T14:38:13;2.40;99.90
45761;DHT22;31471;51.040;14.414;2023-02-02T14:43:18;2.50;99.90
45761;DHT22;31471;51.040;14.414;2023-02-02T14:48:43;2.40;99.90
45761;DHT22;31471;51.040;14.414;2023-02-02T14:51:11;2.30;99.90
45761;DHT22;31471;51.040;14.414;2023-02-02T14:53:37;2.30;99.90
45761;DHT22;31471;51.040;14.414;2023-02-02T14:58:33;2.30;99.90
45761;DHT22;31471;51.040;14.414;2023-02-02T15:06:00;2.30;99.90
45761;DHT22;31471;51.040;14.414;2023-02-02T15:08:26;2.30;99.90
45761;DHT22;31471;51.040;14.414;2023-02-02T15:10:56;2.30;99.90
45761;DHT22;31471;51.040;14.414;2023-02-02T15:13:26;2.30;99.90
45761;DHT22;31471;51.040;14.414;2023-02-02T15:16:09;2.20;99.90
45761;DHT22;31471;51.040;14.414;2023-02-02T15:18:39;2.30;99.90
45761;DHT22;31471;51.040;14.414;2023-02-02T15:21:08;2.30;99.90
45761;DHT22;31471;51.040;14.414;2023-02-02T15:23:41;2.30;99.90
45761;DHT22;31471;51.040;14.414;2023-02-02T15:26:18;2.30;99.90
45761;DHT22;31471;51.040;14.414;2023-02-02T15:28:47;2.30;99.90
45761;DHT22;31471;51.040;14.414;2023-02-02T15:31:28;2.30;99.90
45761;DHT22;31471;51.040;14.414;2023-02-02T15:34:01;2.30;99.90
45761;DHT22;31471;51.040;14.414;2023-02-02T15:36:34;2.30;99.90
45761;DHT22;31471;51.040;14.414;2023-02-02T15:39:03;2.40;99.90
45761;DHT22;31471;51.040;14.414;2023-02-02T15:41:33;2.40;99.90
45761;DHT22;31471;51.040;14.414;2023-02-02T15:44:00;2.40;99.90
45761;DHT22;31471;51.040;14.414;2023-02-02T15:46:27;2.40;99.90
45761;DHT22;31471;51.040;14.414;2023-02-02T15:51:37;2.30;99.90
45761;DHT22;31471;51.040;14.414;2023-02-02T15:54:17;2.00;99.90
45761;DHT22;31471;51.040;14.414;2023-02-02T15:56:44;1.80;99.90
45761;DHT22;31471;51.040;14.414;2023-02-02T15:59:13;1.80;99.90
45761;DHT22;31471;51.040;14.414;2023-02-02T16:01:48;1.80;99.90
45761;DHT22;31471;51.040;14.414;2023-02-02T16:04:18;1.80;99.90
45761;DHT22;31471;51.040;14.414;2023-02-02T16:06:46;1.80;99.90
45761;DHT22;31471;51.040;14.414;2023-02-02T16:09:18;1.70;99.90
45761;DHT22;31471;51.040;14.414;2023-02-02T16:11:46;1.70;99.90
45761;DHT22;31471;51.040;14.414;2023-02-02T16:14:13;1.70;99.90
45761;DHT22;31471;51.040;14.414;2023-02-02T16:16:42;1.70;99.90
45761;DHT22;31471;51.040;14.414;2023-02-02T16:21:34;1.70;99.90
45761;DHT22;31471;51.040;14.414;2023-02-02T16:23:59;1.70;99.90
45761;DHT22;31471;51.040;14.414;2023-02-02T16:26:26;1.70;99.90
45761;DHT22;31471;51.040;14.414;2023-02-02T16:28:53;1.70;99.90
45761;DHT22;31471;51.040;14.414;2023-02-02T16:31:18;1.70;99.90
45761;DHT22;31471;51.040;14.414;2023-02-02T16:33:44;1.70;99.90
45761;DHT22;31471;51.040;14.414;2023-02-02T16:36:16;1.80;99.90
45761;DHT22;31471;51.040;14.414;2023-02-02T16:38:42;1.80;99.90
45761;DHT22;31471;51.040;14.414;2023-02-02T16:43:34;1.80;99.90
45761;DHT22;31471;51.040;14.414;2023-02-02T16:46:00;1.80;99.90
45761;DHT22;31471;51.040;14.414;2023-02-02T16:48:33;1.80;99.90
45761;DHT22;31471;51.040;14.414;2023-02-02T16:51:06;1.80;99.90
45761;DHT22;31471;51.040;14.414;2023-02-02T16:53:32;1.80;99.90
45761;DHT22;31471;51.040;14.414;2023-02-02T16:55:58;1.80;99.90
45761;DHT22;31471;51.040;14.414;2023-02-02T16:58:24;1.80;99.90
45761;DHT22;31471;51.040;14.414;2023-02-02T17:01:23;1.80;99.90
45761;DHT22;31471;51.040;14.414;2023-02-02T17:03:47;1.80;99.90
45761;DHT22;31471;51.040;14.414;2023-02-02T17:06:13;1.80;99.90
45761;DHT22;31471;51.040;14.414;2023-02-02T17:08:39;1.80;99.90
45761;DHT22;31471;51.040;14.414;2023-02-02T17:11:18;1.70;99.90
45761;DHT22;31471;51.040;14.414;2023-02-02T17:13:44;1.80;99.90
45761;DHT22;31471;51.040;14.414;2023-02-02T17:16:11;1.70;99.90